createdAt,value
2022-08-29T00:05:02.331Z,64.70
2022-08-29T00:10:08.114Z,65.00
2022-08-29T00:15:13.119Z,65.10
2022-08-29T00:20:20.913Z,65.00
2022-08-29T00:25:27.773Z,65.00
2022-08-29T00:30:32.316Z,64.80
2022-08-29T00:35:39.579Z,64.40
2022-08-29T00:40:56.221Z,64.30
2022-08-29T00:46:08.645Z,64.20
2022-08-29T00:51:17.436Z,64.10
2022-08-29T00:56:22.064Z,64.00
2022-08-29T01:01:25.723Z,64.00
2022-08-29T01:06:31.762Z,63.80
2022-08-29T01:11:55.850Z,63.70
2022-08-29T01:17:00.665Z,63.60
2022-08-29T01:22:15.683Z,63.60
2022-08-29T01:27:23.483Z,63.50
2022-08-29T01:32:27.574Z,63.40
2022-08-29T01:37:34.091Z,63.40
2022-08-29T01:42:37.848Z,63.70
2022-08-29T01:47:41.890Z,63.30
2022-08-29T01:52:45.503Z,63.20
2022-08-29T01:57:49.124Z,63.20
2022-08-29T02:02:57.148Z,63.10
2022-08-29T02:08:01.390Z,63.00
2022-08-29T02:13:06.144Z,63.00
2022-08-29T02:18:10.612Z,62.50
2022-08-29T02:23:30.187Z,62.80
2022-08-29T02:28:36.900Z,62.80
2022-08-29T02:33:41.666Z,63.20
2022-08-29T02:38:45.750Z,63.10
2022-08-29T02:43:50.093Z,62.20
2022-08-29T02:49:01.471Z,62.60
2022-08-29T02:54:06.335Z,62.60
2022-08-29T02:59:10.571Z,63.00
2022-08-29T03:04:14.294Z,62.10
2022-08-29T03:09:18.023Z,62.60
2022-08-29T03:14:21.644Z,62.60
2022-08-29T03:19:25.471Z,62.60
2022-08-29T03:24:30.430Z,63.20
2022-08-29T03:29:34.562Z,62.50
2022-08-29T03:34:40.282Z,62.50
2022-08-29T03:39:44.057Z,62.50
2022-08-29T03:44:48.260Z,62.50
2022-08-29T03:49:52.019Z,62.40
2022-08-29T03:54:55.644Z,62.50
2022-08-29T04:00:00.163Z,62.40
2022-08-29T04:05:10.392Z,62.40
2022-08-29T04:10:24.235Z,62.30
2022-08-29T04:15:29.887Z,62.20
2022-08-29T04:20:39.545Z,62.20
2022-08-29T04:25:44.297Z,62.10
2022-08-29T04:30:51.875Z,62.00
2022-08-29T04:35:56.567Z,61.90
2022-08-29T04:41:00.282Z,62.10
2022-08-29T04:46:03.850Z,62.00
2022-08-29T04:51:07.529Z,61.90
2022-08-29T04:56:12.879Z,61.90
2022-08-29T05:01:19.762Z,61.90
2022-08-29T05:06:24.536Z,61.60
2022-08-29T05:11:31.497Z,61.90
2022-08-29T05:16:37.579Z,61.90
2022-08-29T05:21:41.244Z,62.00
2022-08-29T05:26:45.684Z,62.00
2022-08-29T05:31:50.020Z,62.00
2022-08-29T05:36:53.746Z,62.00
2022-08-29T05:41:58.803Z,62.10
2022-08-29T05:47:08.306Z,62.20
2022-08-29T05:52:13.927Z,62.20
2022-08-29T05:57:20.499Z,62.10
2022-08-29T06:02:24.718Z,62.60
2022-08-29T06:07:28.382Z,62.50
2022-08-29T06:12:34.834Z,62.10
2022-08-29T06:17:39.311Z,62.10
2022-08-29T06:22:43.210Z,62.20
2022-08-29T06:27:48.152Z,62.00
2022-08-29T06:32:53.148Z,61.90
2022-08-29T06:37:59.170Z,61.60
2022-08-29T06:43:04.287Z,61.80
2022-08-29T06:48:07.880Z,62.10
2022-08-29T06:53:26.827Z,62.40
2022-08-29T06:58:31.319Z,62.90
2022-08-29T07:03:35.449Z,62.80
2022-08-29T07:08:46.720Z,62.50
2022-08-29T07:14:02.434Z,62.10
2022-08-29T07:19:07.795Z,62.10
2022-08-29T07:24:13.792Z,62.80
2022-08-29T07:29:21.917Z,61.70
2022-08-29T07:34:25.542Z,62.40
2022-08-29T07:39:29.249Z,62.00
2022-08-29T07:44:34.667Z,62.30
2022-08-29T07:49:41.508Z,61.60
2022-08-29T07:54:45.558Z,61.30
2022-08-29T07:59:49.898Z,61.00
2022-08-29T08:04:55.160Z,61.30
2022-08-29T08:09:59.498Z,61.30
2022-08-29T08:15:07.562Z,60.50
2022-08-29T08:20:22.360Z,59.90
2022-08-29T08:25:38.177Z,59.30
2022-08-29T08:30:43.605Z,59.70
2022-08-29T08:35:51.593Z,59.70
2022-08-29T08:41:04.627Z,58.30
2022-08-29T08:46:08.740Z,59.30
2022-08-29T08:51:35.663Z,59.40
2022-08-29T08:56:45.510Z,59.20
2022-08-29T09:02:18.389Z,59.00
2022-08-29T09:07:37.218Z,58.60
2022-08-29T09:12:49.802Z,58.80
2022-08-29T09:18:08.382Z,58.90
2022-08-29T09:23:53.405Z,58.30
2022-08-29T09:28:59.481Z,58.10
2022-08-29T09:34:11.691Z,57.80
2022-08-29T09:39:19.026Z,57.40
2022-08-29T09:44:40.640Z,57.20
2022-08-29T09:50:05.915Z,57.20
2022-08-29T09:55:46.042Z,56.20
2022-08-29T10:01:01.662Z,55.90
2022-08-29T10:06:21.810Z,55.90
2022-08-29T10:12:04.113Z,55.50
2022-08-29T10:17:36.187Z,55.50
2022-08-29T10:22:49.371Z,55.90
2022-08-29T10:28:10.288Z,55.70
2022-08-29T10:33:25.940Z,55.60
2022-08-29T10:38:54.030Z,55.70
2022-08-29T10:44:31.648Z,55.40
2022-08-29T10:56:16.389Z,55.70
2022-08-29T11:01:27.835Z,55.30
2022-08-29T11:06:47.821Z,55.50
2022-08-29T11:12:03.089Z,54.80
2022-08-29T11:17:16.115Z,55.20
2022-08-29T11:22:44.911Z,55.50
2022-08-29T11:27:54.661Z,54.90
2022-08-29T11:34:11.587Z,54.60
2022-08-29T11:39:41.213Z,54.80
2022-08-29T11:45:02.775Z,55.30
2022-08-29T11:56:38.525Z,54.40
2022-08-29T12:02:18.215Z,54.00
2022-08-29T12:08:36.137Z,54.80
2022-08-29T12:14:04.983Z,54.90
2022-08-29T12:20:06.115Z,55.10
2022-08-29T12:26:22.061Z,54.40
2022-08-29T12:32:22.701Z,53.80
2022-08-29T12:38:29.119Z,54.70
2022-08-29T12:43:52.009Z,54.30
2022-08-29T12:49:17.372Z,55.00
2022-08-29T12:54:56.459Z,54.20
2022-08-29T13:00:19.451Z,53.70
2022-08-29T13:05:28.913Z,54.20
2022-08-29T13:10:33.096Z,53.60
2022-08-29T13:15:47.344Z,55.40
2022-08-29T13:21:13.314Z,54.60
2022-08-29T13:26:39.940Z,54.40
2022-08-29T13:32:29.063Z,54.80
2022-08-29T13:38:03.866Z,55.20
2022-08-29T13:43:39.424Z,55.40
2022-08-29T13:48:57.544Z,55.40
2022-08-29T13:54:01.387Z,55.50
2022-08-29T13:59:15.908Z,54.90
2022-08-29T14:04:38.096Z,54.40
2022-08-29T14:09:45.814Z,54.50
2022-08-29T14:14:50.042Z,54.10
2022-08-29T14:19:55.816Z,54.30
2022-08-29T14:25:01.511Z,54.00
2022-08-29T14:30:08.502Z,54.00
2022-08-29T14:35:12.412Z,54.50
2022-08-29T14:40:32.490Z,54.50
2022-08-29T14:45:37.158Z,54.00
2022-08-29T14:50:41.670Z,54.30
2022-08-29T14:55:45.534Z,54.20
2022-08-29T15:00:49.632Z,53.80
2022-08-29T15:05:56.257Z,53.50
2022-08-29T15:11:01.415Z,53.80
2022-08-29T15:16:05.830Z,54.20
2022-08-29T15:21:10.715Z,53.30
2022-08-29T15:26:18.491Z,53.90
2022-08-29T15:31:22.833Z,53.80
2022-08-29T15:36:26.590Z,53.80
2022-08-29T15:41:30.882Z,53.40
2022-08-29T15:46:37.756Z,54.00
2022-08-29T15:51:42.333Z,53.80
2022-08-29T15:56:49.476Z,54.00
2022-08-29T16:01:55.810Z,53.50
2022-08-29T16:07:00.540Z,53.60
2022-08-29T16:12:08.166Z,53.90
2022-08-29T16:17:15.022Z,53.10
2022-08-29T16:22:19.023Z,52.80
2022-08-29T16:27:25.235Z,52.70
2022-08-29T16:32:30.290Z,53.10
2022-08-29T16:37:34.422Z,53.00
2022-08-29T16:42:39.619Z,53.00
2022-08-29T16:47:44.096Z,53.10
2022-08-29T16:52:47.852Z,53.20
2022-08-29T16:58:10.814Z,53.70
2022-08-29T17:03:19.434Z,53.10
2022-08-29T17:08:27.372Z,53.30
2022-08-29T17:13:31.720Z,53.10
2022-08-29T17:18:38.305Z,53.50
2022-08-29T17:23:42.847Z,53.50
2022-08-29T17:28:47.801Z,53.70
2022-08-29T17:33:51.934Z,53.80
2022-08-29T17:38:55.967Z,54.00
2022-08-29T17:44:00.306Z,54.00
2022-08-29T17:49:08.067Z,54.30
2022-08-29T17:54:14.852Z,54.50
2022-08-29T17:59:21.787Z,54.80
2022-08-29T18:04:27.479Z,54.90
2022-08-29T18:09:44.648Z,55.10
2022-08-29T18:14:58.169Z,55.40
2022-08-29T18:20:08.871Z,56.20
2022-08-29T18:25:14.441Z,55.90
2022-08-29T18:30:18.765Z,55.80
2022-08-29T18:35:22.998Z,55.80
2022-08-29T18:40:51.224Z,55.90
2022-08-29T18:46:29.682Z,55.90
2022-08-29T18:57:18.496Z,56.00
2022-08-29T19:02:27.664Z,55.90
2022-08-29T19:07:40.693Z,56.00
2022-08-29T19:12:46.917Z,56.00
2022-08-29T19:17:55.001Z,56.10
2022-08-29T19:23:10.265Z,56.10
2022-08-29T19:28:23.463Z,56.10
2022-08-29T19:34:00.129Z,56.20
2022-08-29T19:39:09.644Z,56.30
2022-08-29T19:44:24.824Z,56.60
2022-08-29T19:49:29.636Z,56.70
2022-08-29T19:54:35.707Z,56.40
2022-08-29T19:59:42.361Z,56.60
2022-08-29T20:04:47.521Z,56.70
2022-08-29T20:09:55.776Z,57.00
2022-08-29T20:15:03.174Z,56.70
2022-08-29T20:20:24.996Z,56.70
2022-08-29T20:25:33.819Z,56.80
2022-08-29T20:30:38.745Z,56.80
2022-08-29T20:36:04.851Z,56.80
2022-08-29T20:41:25.494Z,56.90
2022-08-29T20:46:42.339Z,56.90
2022-08-29T20:51:46.952Z,57.60
2022-08-29T20:56:52.882Z,57.60
2022-08-29T21:01:56.680Z,57.30
2022-08-29T21:07:04.943Z,57.00
2022-08-29T21:12:09.639Z,57.30
2022-08-29T21:17:15.226Z,57.00
2022-08-29T21:22:21.734Z,57.10
2022-08-29T21:27:31.103Z,57.20
2022-08-29T21:32:34.719Z,57.30
2022-08-29T21:37:38.444Z,57.30
2022-08-29T21:42:56.254Z,57.30
2022-08-29T21:48:00.632Z,57.30
2022-08-29T21:53:05.176Z,57.40
2022-08-29T21:58:09.004Z,56.90
2022-08-29T22:03:13.373Z,57.30
2022-08-29T22:08:17.275Z,57.40
2022-08-29T22:13:22.893Z,57.80
2022-08-29T22:18:30.766Z,57.50
2022-08-29T22:23:35.521Z,57.50
2022-08-29T22:28:39.508Z,57.50
2022-08-29T22:33:43.987Z,57.60
2022-08-29T22:39:00.527Z,57.50
2022-08-29T22:49:33.398Z,57.70
2022-08-29T22:54:37.786Z,57.70
2022-08-29T22:59:43.476Z,57.90
2022-08-29T23:04:52.116Z,57.90
2022-08-29T23:09:57.365Z,57.90
2022-08-29T23:15:01.891Z,57.60
2022-08-29T23:20:09.912Z,57.60
2022-08-29T23:25:16.154Z,57.70
2022-08-29T23:30:21.039Z,57.60
2022-08-29T23:35:25.691Z,58.10
2022-08-29T23:40:40.923Z,57.60
2022-08-29T23:45:54.436Z,57.70
2022-08-29T23:50:59.399Z,57.60
2022-08-29T23:56:11.144Z,57.80
